• Join FlightAware (Why Join?)
  • Login
  • US Flag 
06:59PM EDT


 

Airport Tracker/Info


-or-


 

Live Flight TrackerFlight Track Log ✈ AAL1326 ✈ 13-Apr-2013 ✈ KMCI - KORD

Flight Track Log - Related Links

Times and Time Zones

All times are in EDT time to prevent confusion due to time zone crossing. See the AAL1326 flight status page for this flight to view local times or setup timezone preferences in your user account.

Time Position Orientation Groundspeed Altitude Reporting Facility
EDT Latitude Longitude Course Direction KTS MPH feet Rate Location/Type
04:41PM 39.4884 -94.4693 41° Northeast  Level FlightAware Approximate
04:41PM 39.1820 -94.7100 41° Northeast 252 290 6,000  Level FlightAware
04:41PM 39.1790 -94.7030 119° Southeast 252 290 6,100 2,160 Climbing FlightAware
04:41PM 39.1750 -94.6670 98° East 300 345 6,900 3,240 Climbing FlightAware
04:42PM 39.1850 -94.6120 77° East 308 354 8,800 3,600 Climbing FlightAware
04:42PM 39.2250 -94.5600 45° Northeast 310 357 11,100 2,820 Climbing FlightAware
04:43PM 39.2750 -94.5150 35° Northeast 347 399 12,600 2,460 Climbing FlightAware
04:44PM 39.3390 -94.4670 30° Northeast 377 434 14,600 3,000 Climbing FlightAware
04:45PM 39.4030 -94.4220 29° Northeast 389 448 16,900 3,780 Climbing FlightAware
04:45PM 39.4620 -94.3750 32° Northeast 379 436 19,700 3,300 Climbing FlightAware
04:46PM 39.5340 -94.3190 31° Northeast 399 459 21,600 2,520 Climbing FlightAware
04:47PM 39.5910 -94.2540 41° Northeast 421 484 23,300 2,280 Climbing FlightAware
04:47PM 39.6350 -94.1580 59° Northeast 443 510 24,900 2,040 Climbing FlightAware
04:48PM 39.6700 -94.0570 66° East 460 529 26,200 2,280 Climbing FlightAware
04:49PM 39.7050 -93.9550 66° East 460 529 28,000 3,000 Climbing FlightAware
04:49PM 39.7440 -93.8430 66° East 439 505 30,500 2,100 Climbing FlightAware
04:50PM 39.7770 -93.7490 65° Northeast 426 490 31,000 300 Climbing FlightAware
04:51PM 39.8220 -93.6570 57° Northeast 414 476 31,000  Level FlightAware
04:52PM 39.8730 -93.5800 49° Northeast 413 475 31,000  Level FlightAware
04:52PM 39.9230 -93.5070 48° Northeast 410 472 31,000  Level FlightAware
04:53PM 39.9900 -93.4410 37° Northeast 392 451 31,000  Level FlightAware
04:54PM 40.0580 -93.4130 17° North 376 433 31,000  Level FlightAware
04:54PM 40.1330 -93.3930 12° North 377 434 31,000  Level FlightAware
04:55PM 40.1840 -93.3790 12° North 376 433 31,000  Level FlightAware
04:56PM 40.2510 -93.3600 12° North 376 433 31,000  Level FlightAware
04:57PM 40.3530 -93.3170 18° North 380 437 31,000  Level FlightAware
04:57PM 40.4090 -93.2880 22° Northeast 380 437 31,000  Level FlightAware
04:58PM 40.4050 -93.1660 92° East 434 499 31,000  Level FlightAware
04:59PM 40.4010 -93.0260 92° East 438 504 31,000  Level FlightAware
04:59PM 40.3960 -92.9120 93° East 440 506 31,000  Level FlightAware
05:00PM 40.3910 -92.8010 93° East 442 509 31,000  Level FlightAware
05:01PM 40.3970 -92.6460 87° East 441 507 31,000  Level FlightAware
05:02PM 40.4160 -92.5030 80° East 443 510 31,000  Level FlightAware
05:02PM 40.4290 -92.4070 80° East 444 511 31,000  Level FlightAware
05:03PM 40.4450 -92.2830 80° East 442 509 31,000  Level FlightAware
05:04PM 40.4560 -92.1890 81° East 442 509 31,000  Level FlightAware
05:05PM 40.4770 -92.0240 80° East 442 509 31,000  Level FlightAware
05:05PM 40.4900 -91.9250 80° East 440 506 31,000  Level FlightAware
05:06PM 40.5040 -91.8110 81° East 440 506 31,000  Level FlightAware
05:07PM 40.5190 -91.6900 81° East 441 507 31,000  Level FlightAware
05:08PM 40.5320 -91.5810 81° East 442 509 31,000  Level FlightAware
05:08PM 40.5450 -91.4710 81° East 442 509 31,000  Level FlightAware
05:09PM 40.5700 -91.3540 74° East 432 497 31,000  Level FlightAware
05:10PM 40.6020 -91.2630 65° Northeast 432 497 31,000  Level FlightAware
05:10PM 40.6390 -91.1550 66° East 431 496 31,000  Level FlightAware
05:11PM 40.6720 -91.0570 66° East 432 497 31,000  Level FlightAware
05:12PM 40.7080 -90.9510 66° East 434 499 31,000  Level FlightAware
05:13PM 40.7540 -90.8160 66° East 435 501 31,000  Level FlightAware
05:13PM 40.7840 -90.7260 66° East 435 501 31,000  Level FlightAware
05:14PM 40.8220 -90.6130 66° East 436 502 31,000  Level FlightAware
05:15PM 40.8550 -90.5160 66° East 439 505 31,000  Level FlightAware
05:16PM 40.8930 -90.4000 67° East 442 509 31,000  Level FlightAware
05:16PM 40.9240 -90.3070 66° East 443 510 31,000  Level FlightAware
05:17PM 40.9590 -90.2020 66° East 443 510 31,000 -780 Level FlightAware
05:18PM 40.9930 -90.0990 66° East 440 506 29,900 -1,920 Descending FlightAware
05:18PM 41.0260 -89.9980 67° East 441 507 28,300 -2,580 Descending FlightAware
05:19PM 41.0630 -89.8850 66° East 445 512 26,300 -2,700 Descending FlightAware
05:20PM 41.0930 -89.7950 66° East 449 517 24,700 -1,860 Descending FlightAware
05:20PM 41.1250 -89.6960 67° East 445 512 24,000 -720 Descending FlightAware
05:21PM 41.1670 -89.5690 66° East 445 512 23,700 -1,140 Descending FlightAware
05:22PM 41.2060 -89.4750 61° Northeast 444 511 22,300 -2,100 Descending FlightAware
05:23PM 41.2480 -89.3710 62° Northeast 444 511 20,800 -2,220 Descending FlightAware
05:23PM 41.2840 -89.2800 62° Northeast 436 502 19,400 -2,100 Descending FlightAware
05:24PM 41.3240 -89.1820 61° Northeast 430 495 18,000 -2,040 Descending FlightAware
05:25PM 41.3650 -89.0780 62° Northeast 419 482 16,400 -2,100 Descending FlightAware
05:25PM 41.4020 -88.9850 62° Northeast 415 478 15,100 -1,980 Descending FlightAware
05:26PM 41.4410 -88.8880 62° Northeast 407 468 13,600 -1,980 Descending FlightAware
05:27PM 41.4730 -88.8080 62° Northeast 395 455 12,500 -1,920 Descending FlightAware
05:27PM 41.5110 -88.7100 63° Northeast 384 442 11,100 -1,020 Descending FlightAware
05:28PM 41.5470 -88.6180 62° Northeast 378 435 11,000 -180 Descending FlightAware
05:29PM 41.5800 -88.5360 62° Northeast 376 433 10,900 -480 Descending FlightAware
05:30PM 41.6190 -88.4500 59° Northeast 370 426 10,400 -660 Descending FlightAware
05:30PM 41.6600 -88.3800 52° Northeast 369 425 10,000 -420 Descending FlightAware
05:31PM 41.6870 -88.3330 52° Northeast 366 421 10,000  Level FlightAware
05:31PM 41.7300 -88.2600 52° Northeast 365 420 10,000  Level FlightAware
05:32PM 41.7770 -88.1780 52° Northeast 362 417 10,000  Level FlightAware
05:33PM 41.8070 -88.1270 52° Northeast 327 376 10,000 -540 Level FlightAware
05:33PM 41.8340 -88.0800 52° Northeast 315 362 9,500 -1,080 Descending FlightAware
05:33PM 41.8420 -88.0640 56° Northeast 312 359 9,300 -1,020 Descending FlightAware
05:34PM 41.8580 -88.0370 51° Northeast 306 352 9,000 -1,140 Descending FlightAware
05:34PM 41.8840 -87.9670 63° Northeast 314 361 8,200 -1,200 Descending FlightAware
05:35PM 41.8850 -87.9270 88° East 308 354 7,700 -1,080 Descending FlightAware
05:35PM 41.8840 -87.8910 92° East 300 345 7,500 -600 Descending FlightAware
05:35PM 41.8840 -87.8690 90° East 292 336 7,400 -420 Descending FlightAware
05:36PM 41.8840 -87.8170 90° East 267 307 7,200 -720 Descending FlightAware
05:36PM 41.8840 -87.7890 90° East 257 296 6,900 -1,320 Descending FlightAware
05:37PM 41.8850 -87.7270 89° East 248 285 6,000 -1,500 Descending FlightAware
05:37PM 41.8880 -87.6890 84° East 239 275 5,300 -1,500 Descending FlightAware
05:37PM 41.8980 -87.6750 46° Northeast 230 265 5,000 -1,440 Descending FlightAware
05:38PM 41.9140 -87.6680 18° North 219 252 4,600 -1,380 Descending FlightAware
05:38PM 41.9310 -87.6670 North 214 246 4,200 -1,380 Descending FlightAware
05:38PM 41.9470 -87.6740 342° North 202 232 3,700 -1,200 Descending FlightAware
05:38PM 41.9550 -87.6870 310° West 196 226 3,500 -780 Descending FlightAware
05:39PM 41.9680 -87.7270 294° West 175 201 3,000 -780 Descending FlightAware
05:40PM 41.9690 -87.7520 273° West 170 196 2,700 -960 Descending FlightAware
05:40PM 41.9690 -87.8050 270° West 133 153 1,800 -960 Descending FlightAware
05:41PM 41.9690 -87.8190 270° West 121 139 1,600 -600 Descending FlightAware
05:42PM 41.9690 -87.8570 270° West 120 138 1,100 -600 Descending FlightAware
05:42PM 41.9690 -87.8720 270° West 124 143 900 -420 Descending FlightAware
05:43PM 41.9690 -87.9040 270° West 121 139 700 -300 Descending FlightAware